Overview Statistics Trail Chart Weather Telemetry Raw packets
 

This is the latest recevied weather packets stored in our database for station/object IZ1HMT-3. If no packets are shown the sender has not sent any weather packets the latest 10 day(s).

<< 21 22 23 24 25 26 27 >>
Time Temp. Humidity Pressure Rain* Wind** Luminosity Snow
1787938061 31.67° C 61% 1012.7 hPa - - - -
1787937456 31.67° C 60% 1012.8 hPa - - - -
1787936851 32.22° C 59% 1013.2 hPa - - - -
1787935640 32.22° C 58% 1013.4 hPa - - - -
1787933824 31.67° C 63% 1014.2 hPa - - - -
1787932614 32.78° C 59% 1014.4 hPa - - - -
1787932008 32.78° C 59% 1013.7 hPa - - - -
1787931404 32.78° C 59% 1014 hPa - - - -
1787930798 33.33° C 58% 1013.7 hPa - - - -
1787930193 33.89° C 56% 1014.1 hPa - - - -
1787928981 34.44° C 54% 1015 hPa - - - -
1787926560 36.67° C 46% 1014.4 hPa - - - -
1787925955 37.22° C 45% 1014.3 hPa - - - -
1787924139 35° C 55% 1014.8 hPa - - - -
1787921719 33.89° C 57% 1014.8 hPa - - - -
1787920508 35.56° C 53% 1015.1 hPa - - - -
1787919904 35.56° C 53% 1015.2 hPa - - - -
1787918694 36.67° C 51% 1015.2 hPa - - - -
1787917485 35.56° C 54% 1015.3 hPa - - - -
1787916881 35° C 56% 1015.2 hPa - - - -
1787915672 33.89° C 59% 1015.5 hPa - - - -
1787915066 34.44° C 58% 1015.4 hPa - - - -
1787914462 33.89° C 59% 1015.5 hPa - - - -
1787913855 34.44° C 56% 1015.4 hPa - - - -
1787912646 35° C 53% 1015.3 hPa - - - -

* Rain since midnight (hover to see other rain measurements)
** Current wind speed in m/s (hover to see current wind gust speed)